createdAt,value
2017-07-02T00:00:24.837Z,15.88
2017-07-02T00:01:25.413Z,15.86
2017-07-02T00:02:25.990Z,15.84
2017-07-02T00:03:26.566Z,15.77
2017-07-02T00:04:27.142Z,15.82
2017-07-02T00:05:27.720Z,15.88
2017-07-02T00:06:28.301Z,15.88
2017-07-02T00:07:28.890Z,15.90
2017-07-02T00:08:29.468Z,15.86
2017-07-02T00:09:30.061Z,15.86
2017-07-02T00:10:30.645Z,15.95
2017-07-02T00:11:31.219Z,15.94
2017-07-02T00:12:31.796Z,15.84
2017-07-02T00:13:32.373Z,15.82
2017-07-02T00:14:32.966Z,15.76
2017-07-02T00:15:33.559Z,15.75
2017-07-02T00:16:34.137Z,15.79
2017-07-02T00:17:34.716Z,15.91
2017-07-02T00:18:35.295Z,15.80
2017-07-02T00:19:35.873Z,15.82
2017-07-02T00:20:36.450Z,15.73
2017-07-02T00:21:37.026Z,15.77
2017-07-02T00:22:37.604Z,15.62
2017-07-02T00:23:38.183Z,15.73
2017-07-02T00:24:38.761Z,15.72
2017-07-02T00:25:39.339Z,15.62
2017-07-02T00:26:39.916Z,15.67
2017-07-02T00:27:40.491Z,15.61
2017-07-02T00:28:41.068Z,15.65
2017-07-02T00:29:41.645Z,15.59
2017-07-02T00:30:42.223Z,15.65
2017-07-02T00:31:42.804Z,15.65
2017-07-02T00:32:43.379Z,15.68
2017-07-02T00:33:43.957Z,15.65
2017-07-02T00:34:44.535Z,15.64
2017-07-02T00:35:45.111Z,15.61
2017-07-02T00:36:45.690Z,15.64
2017-07-02T00:37:46.268Z,15.61
2017-07-02T00:38:46.862Z,15.58
2017-07-02T00:39:47.459Z,15.51
2017-07-02T00:40:48.048Z,15.55
2017-07-02T00:41:48.627Z,15.51
2017-07-02T00:42:49.220Z,15.44
2017-07-02T00:43:49.798Z,15.49
2017-07-02T00:44:50.378Z,15.61
2017-07-02T00:45:50.954Z,15.46
2017-07-02T00:46:51.531Z,15.55
2017-07-02T00:47:52.109Z,15.46
2017-07-02T00:48:52.687Z,15.46
2017-07-02T00:49:53.265Z,15.57
2017-07-02T00:50:53.851Z,15.58
2017-07-02T00:51:54.420Z,15.61
2017-07-02T00:52:54.998Z,15.51
2017-07-02T00:53:55.575Z,15.43
2017-07-02T00:54:56.155Z,15.43
2017-07-02T00:55:56.749Z,15.52
2017-07-02T00:56:57.326Z,15.52
2017-07-02T00:57:57.905Z,15.64
2017-07-02T00:58:58.482Z,15.59
2017-07-02T00:59:59.058Z,15.57
2017-07-02T01:00:59.634Z,15.55
2017-07-02T01:02:00.213Z,15.52
2017-07-02T01:03:00.802Z,15.47
2017-07-02T01:04:01.381Z,15.51
2017-07-02T01:05:01.958Z,15.54
2017-07-02T01:06:02.539Z,15.47
2017-07-02T01:07:03.114Z,15.47
2017-07-02T01:08:03.707Z,15.55
2017-07-02T01:09:04.285Z,15.49
2017-07-02T01:10:04.862Z,15.55
2017-07-02T01:11:05.439Z,15.47
2017-07-02T01:12:06.018Z,15.46
2017-07-02T01:13:06.597Z,15.47
2017-07-02T01:14:07.178Z,15.46
2017-07-02T01:15:07.770Z,15.44
2017-07-02T01:16:08.347Z,15.44
2017-07-02T01:17:08.928Z,15.43
2017-07-02T01:18:09.504Z,15.29
2017-07-02T01:19:10.081Z,15.42
2017-07-02T01:20:10.660Z,15.40
2017-07-02T01:21:11.236Z,15.43
2017-07-02T01:22:11.815Z,15.42
2017-07-02T01:23:12.408Z,15.39
2017-07-02T01:24:12.985Z,15.43
2017-07-02T01:25:13.562Z,15.39
2017-07-02T01:26:14.139Z,15.31
2017-07-02T01:27:14.718Z,15.31
2017-07-02T01:28:15.297Z,15.25
2017-07-02T01:29:15.874Z,15.27
2017-07-02T01:30:16.451Z,15.28
2017-07-02T01:31:17.043Z,15.14
2017-07-02T01:32:17.621Z,15.28
2017-07-02T01:33:18.198Z,15.27
2017-07-02T01:34:18.790Z,15.09
2017-07-02T01:35:19.368Z,15.14
2017-07-02T01:36:19.961Z,15.09
2017-07-02T01:37:20.553Z,15.15
2017-07-02T01:38:21.130Z,15.04
2017-07-02T01:39:21.708Z,15.10
2017-07-02T01:40:22.286Z,15.14
2017-07-02T01:41:22.867Z,15.03
2017-07-02T01:42:23.460Z,15.10
2017-07-02T01:43:24.053Z,14.99
2017-07-02T01:44:24.630Z,15.07
2017-07-02T01:45:25.209Z,15.03
2017-07-02T01:46:25.787Z,15.00
2017-07-02T01:47:26.379Z,15.02
2017-07-02T01:48:26.955Z,15.00
2017-07-02T01:49:27.531Z,15.00
2017-07-02T01:50:28.110Z,14.96
2017-07-02T01:51:28.688Z,14.85
2017-07-02T01:52:29.264Z,14.86
2017-07-02T01:53:29.842Z,14.89
2017-07-02T01:54:30.420Z,14.84
2017-07-02T01:55:31.017Z,14.79
2017-07-02T01:56:31.588Z,14.73
2017-07-02T01:57:32.165Z,14.73
2017-07-02T01:58:32.743Z,14.69
2017-07-02T01:59:33.322Z,14.73
2017-07-02T02:00:33.898Z,14.69
2017-07-02T02:01:34.475Z,14.79
2017-07-02T02:02:35.051Z,14.81
2017-07-02T02:03:35.628Z,14.78
2017-07-02T02:04:36.206Z,14.70
2017-07-02T02:05:36.784Z,14.69
2017-07-02T02:06:37.363Z,14.62
2017-07-02T02:07:37.940Z,14.77
2017-07-02T02:08:38.516Z,14.78
2017-07-02T02:09:39.092Z,14.78
2017-07-02T02:10:39.669Z,14.79
2017-07-02T02:11:40.247Z,14.78
2017-07-02T02:12:40.824Z,14.72
2017-07-02T02:13:41.402Z,14.73
2017-07-02T02:14:41.978Z,14.84
2017-07-02T02:15:42.554Z,14.84
2017-07-02T02:16:43.134Z,14.79
2017-07-02T02:17:43.712Z,14.81
2017-07-02T02:18:44.290Z,14.77
2017-07-02T02:19:44.868Z,14.88
2017-07-02T02:20:45.444Z,14.91
2017-07-02T02:21:46.023Z,14.86
2017-07-02T02:22:46.601Z,14.84
2017-07-02T02:23:47.179Z,14.85
2017-07-02T02:24:47.754Z,14.89
2017-07-02T02:25:48.330Z,14.92
2017-07-02T02:26:48.907Z,14.91
2017-07-02T02:27:49.484Z,14.97
2017-07-02T02:28:50.063Z,14.96
2017-07-02T02:29:50.640Z,14.89
2017-07-02T02:30:51.219Z,14.94
2017-07-02T02:31:51.795Z,14.88
2017-07-02T02:32:52.373Z,14.89
2017-07-02T02:33:52.951Z,14.91
2017-07-02T02:34:53.529Z,15.02
2017-07-02T02:35:54.106Z,14.94
2017-07-02T02:36:54.682Z,14.97
2017-07-02T02:37:55.258Z,14.91
2017-07-02T02:38:55.836Z,14.85
2017-07-02T02:39:56.414Z,14.86
2017-07-02T02:40:56.993Z,15.00
2017-07-02T02:41:57.570Z,14.86
2017-07-02T02:42:58.147Z,14.92
2017-07-02T02:43:58.726Z,14.85
2017-07-02T02:44:59.319Z,14.91
2017-07-02T02:45:59.896Z,14.92
2017-07-02T02:47:00.475Z,14.92
2017-07-02T02:48:01.051Z,14.86
2017-07-02T02:49:01.629Z,14.85
2017-07-02T02:50:02.207Z,14.86
2017-07-02T02:51:02.785Z,14.91
2017-07-02T02:52:03.364Z,14.85
2017-07-02T02:53:03.940Z,14.92
2017-07-02T02:54:04.517Z,14.85
2017-07-02T02:55:05.111Z,14.89
2017-07-02T02:56:05.688Z,14.85
2017-07-02T02:57:06.265Z,14.86
2017-07-02T02:58:06.857Z,14.84
2017-07-02T02:59:07.433Z,14.79
2017-07-02T03:00:08.010Z,14.65
2017-07-02T03:01:08.588Z,14.78
2017-07-02T03:02:09.166Z,14.73
2017-07-02T03:03:09.743Z,14.73
2017-07-02T03:04:10.319Z,14.65
2017-07-02T03:05:10.895Z,14.65
2017-07-02T03:06:11.474Z,14.78
2017-07-02T03:07:12.051Z,14.77
2017-07-02T03:08:12.631Z,14.70
2017-07-02T03:09:13.207Z,14.73
2017-07-02T03:10:13.784Z,14.77
2017-07-02T03:11:14.365Z,14.81
2017-07-02T03:12:14.941Z,14.79
2017-07-02T03:13:15.518Z,14.69
2017-07-02T03:14:16.097Z,14.79
2017-07-02T03:15:16.672Z,14.77
2017-07-02T03:16:17.247Z,14.81
2017-07-02T03:17:17.825Z,14.72
2017-07-02T03:18:18.403Z,14.81
2017-07-02T03:19:18.981Z,14.79
2017-07-02T03:20:19.559Z,14.81
2017-07-02T03:21:20.137Z,14.88
2017-07-02T03:22:20.716Z,14.85
2017-07-02T03:23:21.295Z,14.81
2017-07-02T03:24:21.874Z,14.72
2017-07-02T03:25:22.452Z,14.79
2017-07-02T03:26:23.032Z,14.89
2017-07-02T03:27:23.610Z,14.79
2017-07-02T03:28:24.189Z,14.82
2017-07-02T03:29:24.767Z,14.79
2017-07-02T03:30:25.345Z,14.72
2017-07-02T03:31:25.925Z,14.72
2017-07-02T03:32:26.503Z,14.85
2017-07-02T03:33:27.081Z,14.73
2017-07-02T03:34:27.660Z,14.72
2017-07-02T03:35:28.242Z,14.79
2017-07-02T03:36:28.818Z,14.78
2017-07-02T03:37:29.395Z,14.78
2017-07-02T03:38:29.974Z,14.81
2017-07-02T03:39:30.554Z,14.89
2017-07-02T03:40:31.132Z,14.86
2017-07-02T03:41:31.712Z,14.70
2017-07-02T03:42:32.288Z,14.73
2017-07-02T03:43:32.867Z,14.82
2017-07-02T03:44:33.447Z,14.81
2017-07-02T03:45:34.043Z,14.82
2017-07-02T03:46:34.620Z,14.82
2017-07-02T03:47:35.199Z,14.79
2017-07-02T03:48:35.778Z,14.82
2017-07-02T03:49:36.356Z,14.86
2017-07-02T03:50:36.934Z,14.84
2017-07-02T03:51:37.512Z,14.79
2017-07-02T03:52:38.090Z,14.84
2017-07-02T03:53:38.670Z,14.88
2017-07-02T03:54:39.264Z,14.85
2017-07-02T03:55:39.842Z,14.97
2017-07-02T03:56:40.420Z,14.85
2017-07-02T03:57:40.998Z,14.99
2017-07-02T03:58:41.577Z,15.00
2017-07-02T03:59:42.157Z,14.88
2017-07-02T04:00:42.734Z,14.89
2017-07-02T04:01:43.312Z,14.85
2017-07-02T04:02:43.893Z,14.94
2017-07-02T04:03:44.472Z,14.84
2017-07-02T04:04:45.050Z,14.89
2017-07-02T04:05:45.629Z,14.89
2017-07-02T04:06:46.208Z,14.94
2017-07-02T04:07:46.789Z,15.00
2017-07-02T04:08:47.367Z,14.89
2017-07-02T04:09:47.946Z,14.96
2017-07-02T04:10:48.526Z,14.88
2017-07-02T04:11:49.103Z,14.96
2017-07-02T04:12:49.697Z,14.92
2017-07-02T04:13:50.276Z,14.99
2017-07-02T04:14:50.855Z,14.97
2017-07-02T04:15:51.430Z,14.89
2017-07-02T04:16:52.012Z,14.89
2017-07-02T04:17:52.586Z,14.92
2017-07-02T04:18:53.164Z,14.92
2017-07-02T04:19:53.743Z,14.99
2017-07-02T04:20:54.321Z,14.92
2017-07-02T04:21:54.900Z,14.96
2017-07-02T04:22:55.476Z,14.97
2017-07-02T04:23:56.055Z,14.94
2017-07-02T04:24:56.633Z,14.96
2017-07-02T04:25:57.212Z,15.04
2017-07-02T04:26:57.804Z,15.07
2017-07-02T04:27:58.384Z,15.07
2017-07-02T04:28:58.961Z,15.03
2017-07-02T04:29:59.539Z,15.11
2017-07-02T04:31:00.135Z,15.09
2017-07-02T04:32:00.709Z,15.14
2017-07-02T04:33:01.289Z,15.09
2017-07-02T04:34:01.871Z,15.21
2017-07-02T04:35:02.449Z,15.18
2017-07-02T04:36:03.029Z,15.14
2017-07-02T04:37:03.609Z,15.06
2017-07-02T04:38:04.188Z,15.10
2017-07-02T04:39:04.770Z,15.17
2017-07-02T04:40:05.361Z,15.06
2017-07-02T04:41:05.939Z,15.14
2017-07-02T04:42:06.519Z,15.07
2017-07-02T04:43:07.099Z,15.10
2017-07-02T04:44:07.695Z,15.11
2017-07-02T04:45:08.274Z,15.02
2017-07-02T04:46:08.852Z,15.11
2017-07-02T04:47:09.433Z,15.06
2017-07-02T04:48:10.012Z,15.14
2017-07-02T04:49:10.591Z,15.07
2017-07-02T04:50:11.173Z,15.11
2017-07-02T04:51:11.751Z,15.10
2017-07-02T04:52:12.331Z,15.07
2017-07-02T04:53:12.910Z,15.11
2017-07-02T04:54:13.491Z,15.10
2017-07-02T04:55:14.084Z,15.09
2017-07-02T04:56:14.665Z,15.15
2017-07-02T04:57:15.261Z,15.11
2017-07-02T04:58:15.839Z,15.19
2017-07-02T04:59:16.419Z,15.10
2017-07-02T05:00:17.000Z,15.10
2017-07-02T05:01:17.579Z,15.17
2017-07-02T05:02:18.158Z,15.17
2017-07-02T05:03:18.740Z,15.17
2017-07-02T05:04:19.320Z,15.17
2017-07-02T05:05:19.897Z,15.17
2017-07-02T05:06:20.478Z,15.11
2017-07-02T05:07:21.057Z,15.19
2017-07-02T05:08:21.636Z,15.25
2017-07-02T05:09:22.215Z,15.17
2017-07-02T05:10:22.794Z,15.11
2017-07-02T05:11:23.374Z,15.14
2017-07-02T05:12:23.952Z,15.15
2017-07-02T05:13:24.531Z,15.18
2017-07-02T05:14:25.122Z,15.15
2017-07-02T05:15:25.702Z,15.29
2017-07-02T05:16:26.282Z,15.19
2017-07-02T05:17:26.862Z,15.25
2017-07-02T05:18:27.440Z,15.28
2017-07-02T05:19:28.020Z,15.14
2017-07-02T05:20:28.601Z,15.31
2017-07-02T05:21:29.179Z,15.22
2017-07-02T05:22:29.759Z,15.24
2017-07-02T05:23:30.341Z,15.25
2017-07-02T05:24:30.920Z,15.28
2017-07-02T05:25:31.499Z,15.29
2017-07-02T05:26:32.079Z,15.40
2017-07-02T05:27:32.660Z,15.43
2017-07-02T05:28:33.256Z,15.36
2017-07-02T05:29:33.852Z,15.43
2017-07-02T05:30:34.449Z,15.44
2017-07-02T05:31:35.029Z,15.36
2017-07-02T05:32:35.611Z,15.44
2017-07-02T05:33:36.192Z,15.43
2017-07-02T05:34:36.771Z,15.39
2017-07-02T05:35:37.353Z,15.42
2017-07-02T05:36:37.932Z,15.49
2017-07-02T05:37:38.513Z,15.40
2017-07-02T05:38:39.095Z,15.42
2017-07-02T05:39:39.674Z,15.42
2017-07-02T05:40:40.254Z,15.52
2017-07-02T05:41:40.836Z,15.46
2017-07-02T05:42:41.416Z,15.47
2017-07-02T05:43:41.996Z,15.57
2017-07-02T05:44:42.592Z,15.54
2017-07-02T05:45:43.174Z,15.51
2017-07-02T05:46:43.753Z,15.51
2017-07-02T05:47:44.335Z,15.59
2017-07-02T05:48:44.917Z,15.55
2017-07-02T05:49:45.497Z,15.61
2017-07-02T05:50:46.077Z,15.61
2017-07-02T05:51:46.659Z,15.62
2017-07-02T05:52:47.239Z,15.73
2017-07-02T05:53:47.821Z,15.62
2017-07-02T05:54:48.402Z,15.72
2017-07-02T05:55:48.983Z,15.72
2017-07-02T05:56:49.563Z,15.72
2017-07-02T05:57:50.145Z,15.72
2017-07-02T05:58:50.725Z,15.75
2017-07-02T05:59:51.309Z,15.76
2017-07-02T06:00:51.887Z,15.77
2017-07-02T06:01:52.467Z,15.68
2017-07-02T06:02:53.047Z,15.73
2017-07-02T06:03:53.629Z,15.68
2017-07-02T06:04:54.209Z,15.67
2017-07-02T06:05:54.789Z,15.79
2017-07-02T06:06:55.370Z,15.73
2017-07-02T06:07:55.949Z,15.79
2017-07-02T06:08:56.529Z,15.77
2017-07-02T06:09:57.108Z,15.68
2017-07-02T06:10:57.689Z,15.68
2017-07-02T06:11:58.269Z,15.80
2017-07-02T06:12:58.846Z,15.82
2017-07-02T06:13:59.427Z,15.83
2017-07-02T06:15:00.023Z,15.77
2017-07-02T06:16:00.607Z,15.83
2017-07-02T06:17:01.185Z,15.84
2017-07-02T06:18:01.765Z,15.83
2017-07-02T06:19:02.347Z,15.91
2017-07-02T06:20:02.927Z,15.92
2017-07-02T06:21:03.506Z,16.09
2017-07-02T06:22:04.089Z,15.97
2017-07-02T06:23:04.669Z,15.95
2017-07-02T06:24:05.248Z,16.09
2017-07-02T06:25:05.831Z,16.05
2017-07-02T06:26:06.412Z,16.16
2017-07-02T06:27:06.991Z,16.17
2017-07-02T06:28:07.574Z,16.16
2017-07-02T06:29:08.155Z,16.26
2017-07-02T06:30:08.737Z,16.28
2017-07-02T06:31:09.317Z,16.31
2017-07-02T06:32:09.897Z,16.26
2017-07-02T06:33:10.477Z,16.26
2017-07-02T06:34:11.059Z,16.33
2017-07-02T06:35:11.640Z,16.39
2017-07-02T06:36:12.220Z,16.28
2017-07-02T06:37:12.803Z,16.46
2017-07-02T06:38:13.383Z,16.33
2017-07-02T06:39:13.964Z,16.24
2017-07-02T06:40:14.547Z,16.46
2017-07-02T06:41:15.127Z,16.38
2017-07-02T06:42:15.723Z,16.49
2017-07-02T06:43:16.303Z,16.41
2017-07-02T06:44:16.885Z,16.35
2017-07-02T06:45:17.465Z,16.36
2017-07-02T06:46:18.047Z,16.42
2017-07-02T06:47:18.632Z,16.39
2017-07-02T06:48:19.228Z,16.35
2017-07-02T06:49:19.823Z,16.50
2017-07-02T06:50:20.404Z,16.42
2017-07-02T06:51:20.984Z,16.46
2017-07-02T06:52:21.581Z,16.36
2017-07-02T06:53:22.164Z,16.47
2017-07-02T06:54:22.748Z,16.41
2017-07-02T06:55:23.362Z,16.50
2017-07-02T06:56:23.907Z,16.38
2017-07-02T06:57:24.488Z,16.36
2017-07-02T06:58:25.073Z,16.35
2017-07-02T06:59:25.652Z,16.43
2017-07-02T07:00:26.232Z,16.33
2017-07-02T07:01:26.813Z,16.42
2017-07-02T07:02:27.395Z,16.42
2017-07-02T07:03:27.992Z,16.42
2017-07-02T07:04:28.573Z,16.42
2017-07-02T07:05:29.154Z,16.39
2017-07-02T07:06:29.735Z,16.46
2017-07-02T07:07:30.316Z,16.41
2017-07-02T07:08:30.896Z,16.42
2017-07-02T07:09:31.479Z,16.35
2017-07-02T07:10:32.058Z,16.49
2017-07-02T07:11:32.642Z,16.50
2017-07-02T07:12:33.222Z,16.46
2017-07-02T07:13:33.802Z,16.57
2017-07-02T07:14:34.383Z,16.57
2017-07-02T07:15:34.965Z,16.68
2017-07-02T07:16:35.544Z,16.53
2017-07-02T07:17:36.130Z,16.74
2017-07-02T07:18:36.705Z,16.71
2017-07-02T07:19:37.288Z,16.71
2017-07-02T07:20:37.869Z,16.72
2017-07-02T07:21:38.449Z,16.61
2017-07-02T07:22:39.033Z,16.69
2017-07-02T07:23:39.612Z,16.61
2017-07-02T07:24:40.190Z,16.65
2017-07-02T07:25:40.770Z,16.65
2017-07-02T07:26:41.351Z,16.66
2017-07-02T07:27:41.930Z,16.61
2017-07-02T07:28:42.509Z,16.56
2017-07-02T07:29:43.089Z,16.61
2017-07-02T07:30:43.670Z,16.60
2017-07-02T07:31:44.265Z,16.47
2017-07-02T07:32:44.845Z,16.49
2017-07-02T07:33:45.426Z,16.41
2017-07-02T07:34:46.022Z,16.43
2017-07-02T07:35:46.602Z,16.41
2017-07-02T07:36:47.183Z,16.35
2017-07-02T07:37:47.764Z,16.39
2017-07-02T07:38:48.345Z,16.36
2017-07-02T07:39:48.927Z,16.36
2017-07-02T07:40:49.508Z,16.41
2017-07-02T07:41:50.088Z,16.39
2017-07-02T07:42:50.671Z,16.42
2017-07-02T07:43:51.252Z,16.38
2017-07-02T07:44:51.833Z,16.38
2017-07-02T07:45:52.415Z,16.39
2017-07-02T07:46:52.997Z,16.33
2017-07-02T07:47:53.578Z,16.33
2017-07-02T07:48:54.161Z,16.36
2017-07-02T07:49:54.741Z,16.21
2017-07-02T07:50:55.323Z,16.42
2017-07-02T07:51:55.904Z,16.39
2017-07-02T07:52:56.485Z,16.42
2017-07-02T07:53:57.067Z,16.39
2017-07-02T07:54:57.660Z,16.46
2017-07-02T07:55:58.242Z,16.50
2017-07-02T07:56:58.823Z,16.56
2017-07-02T07:57:59.419Z,16.50
2017-07-02T07:59:00.000Z,16.69
2017-07-02T08:00:00.580Z,16.83
2017-07-02T08:01:01.162Z,16.72
2017-07-02T08:02:01.745Z,16.86
2017-07-02T08:03:02.324Z,17.01
2017-07-02T08:04:02.906Z,16.90
2017-07-02T08:05:03.487Z,16.90
2017-07-02T08:06:04.067Z,16.96
2017-07-02T08:07:04.650Z,16.91
2017-07-02T08:08:05.232Z,16.90
2017-07-02T08:09:05.814Z,16.87
2017-07-02T08:10:06.396Z,16.96
2017-07-02T08:11:06.979Z,16.93
2017-07-02T08:12:07.560Z,16.89
2017-07-02T08:13:08.142Z,17.01
2017-07-02T08:14:08.724Z,17.02
2017-07-02T08:15:09.305Z,17.15
2017-07-02T08:16:09.888Z,16.99
2017-07-02T08:17:10.485Z,16.78
2017-07-02T08:18:11.068Z,16.89
2017-07-02T08:19:11.650Z,16.71
2017-07-02T08:20:12.232Z,16.81
2017-07-02T08:21:12.814Z,16.76
2017-07-02T08:22:13.397Z,16.66
2017-07-02T08:23:13.978Z,16.71
2017-07-02T08:24:14.559Z,16.81
2017-07-02T08:25:15.142Z,16.74
2017-07-02T08:26:15.722Z,16.72
2017-07-02T08:27:16.305Z,16.69
2017-07-02T08:28:16.888Z,16.74
2017-07-02T08:29:17.470Z,16.74
2017-07-02T08:30:18.051Z,16.75
2017-07-02T08:31:18.636Z,16.72
2017-07-02T08:32:19.217Z,16.79
2017-07-02T08:33:19.798Z,16.87
2017-07-02T08:34:20.382Z,16.83
2017-07-02T08:35:20.962Z,16.66
2017-07-02T08:36:21.543Z,16.66
2017-07-02T08:37:22.130Z,16.69
2017-07-02T08:38:22.709Z,16.64
2017-07-02T08:39:23.291Z,16.66
2017-07-02T08:40:23.873Z,16.64
2017-07-02T08:41:24.454Z,16.84
2017-07-02T08:42:25.036Z,16.86
2017-07-02T08:43:25.618Z,16.86
2017-07-02T08:44:26.213Z,16.84
2017-07-02T08:45:26.794Z,16.89
2017-07-02T08:46:27.377Z,16.86
2017-07-02T08:47:27.958Z,16.74
2017-07-02T08:48:28.538Z,16.78
2017-07-02T08:49:29.134Z,16.74
2017-07-02T08:50:29.714Z,16.84
2017-07-02T08:51:30.295Z,16.89
2017-07-02T08:52:30.883Z,16.84
2017-07-02T08:53:31.471Z,16.71
2017-07-02T08:54:32.054Z,16.81
2017-07-02T08:55:32.635Z,16.75
2017-07-02T08:56:33.216Z,16.89
2017-07-02T08:57:33.815Z,16.89
2017-07-02T08:58:34.399Z,16.93
2017-07-02T08:59:34.977Z,17.08
2017-07-02T09:00:35.559Z,16.90
2017-07-02T09:01:36.140Z,16.86
2017-07-02T09:02:36.721Z,16.89
2017-07-02T09:03:37.302Z,16.90
2017-07-02T09:04:37.899Z,16.93
2017-07-02T09:05:38.496Z,16.87
2017-07-02T09:06:39.079Z,17.04
2017-07-02T09:07:39.659Z,16.97
2017-07-02T09:08:40.240Z,16.90
2017-07-02T09:09:40.824Z,16.93
2017-07-02T09:10:41.403Z,16.89
2017-07-02T09:11:41.986Z,16.76
2017-07-02T09:12:42.570Z,16.83
2017-07-02T09:13:43.150Z,16.86
2017-07-02T09:14:43.730Z,16.94
2017-07-02T09:15:44.312Z,16.97
2017-07-02T09:16:44.896Z,16.94
2017-07-02T09:17:45.474Z,16.97
2017-07-02T09:18:46.058Z,16.93
2017-07-02T09:19:46.655Z,16.96
2017-07-02T09:20:47.236Z,16.99
2017-07-02T09:21:47.819Z,16.91
2017-07-02T09:22:48.415Z,16.93
2017-07-02T09:23:48.997Z,17.02
2017-07-02T09:24:49.581Z,17.04
2017-07-02T09:25:50.175Z,17.04
2017-07-02T09:26:50.757Z,17.19
2017-07-02T09:27:51.354Z,17.19
2017-07-02T09:28:51.938Z,16.96
2017-07-02T09:29:52.534Z,17.09
2017-07-02T09:30:53.115Z,17.06
2017-07-02T09:31:53.697Z,17.24
2017-07-02T09:32:54.279Z,17.29
2017-07-02T09:33:54.860Z,17.34
2017-07-02T09:34:55.442Z,17.24
2017-07-02T09:35:56.025Z,17.29
2017-07-02T09:36:56.606Z,17.20
2017-07-02T09:37:57.188Z,17.23
2017-07-02T09:38:57.771Z,17.33
2017-07-02T09:39:58.351Z,17.23
2017-07-02T09:40:58.934Z,17.30
2017-07-02T09:41:59.518Z,17.27
2017-07-02T09:43:00.100Z,17.15
2017-07-02T09:44:00.700Z,17.29
2017-07-02T09:45:01.281Z,17.31
2017-07-02T09:46:01.862Z,17.38
2017-07-02T09:47:02.445Z,17.45
2017-07-02T09:48:03.028Z,17.38
2017-07-02T09:49:03.614Z,17.52
2017-07-02T09:50:04.195Z,17.60
2017-07-02T09:51:04.773Z,17.74
2017-07-02T09:52:05.354Z,17.60
2017-07-02T09:53:05.937Z,17.51
2017-07-02T09:54:06.518Z,17.57
2017-07-02T09:55:07.101Z,17.60
2017-07-02T09:56:07.696Z,17.71
2017-07-02T09:57:08.279Z,17.72
2017-07-02T09:58:08.860Z,17.45
2017-07-02T09:59:09.442Z,17.60
2017-07-02T10:00:10.026Z,17.54
2017-07-02T10:01:10.607Z,17.56
2017-07-02T10:02:11.189Z,17.49
2017-07-02T10:03:11.773Z,17.57
2017-07-02T10:04:12.353Z,17.52
2017-07-02T10:05:12.935Z,17.49
2017-07-02T10:06:13.533Z,17.56
2017-07-02T10:07:14.115Z,17.76
2017-07-02T10:08:14.697Z,17.79
2017-07-02T10:09:15.280Z,17.87
2017-07-02T10:10:15.863Z,17.80
2017-07-02T10:11:16.446Z,17.72
2017-07-02T10:12:17.027Z,17.86
2017-07-02T10:13:17.610Z,17.78
2017-07-02T10:14:18.191Z,17.82
2017-07-02T10:15:18.774Z,17.83
2017-07-02T10:16:19.358Z,17.94
2017-07-02T10:17:19.940Z,18.05
2017-07-02T10:18:20.521Z,17.98
2017-07-02T10:19:21.105Z,18.01
2017-07-02T10:20:21.687Z,17.71
2017-07-02T10:21:22.270Z,17.87
2017-07-02T10:22:22.854Z,17.95
2017-07-02T10:23:23.435Z,18.13
2017-07-02T10:24:24.017Z,18.08
2017-07-02T10:25:24.600Z,17.98
2017-07-02T10:26:25.182Z,18.03
2017-07-02T10:27:25.764Z,18.04
2017-07-02T10:28:26.361Z,18.00
2017-07-02T10:29:26.944Z,18.01
2017-07-02T10:30:27.525Z,17.85
2017-07-02T10:31:28.108Z,17.97
2017-07-02T10:32:28.691Z,17.76
2017-07-02T10:33:29.273Z,17.57
2017-07-02T10:34:29.854Z,17.48
2017-07-02T10:35:30.438Z,17.60
2017-07-02T10:36:31.019Z,17.49
2017-07-02T10:37:31.600Z,17.56
2017-07-02T10:38:32.184Z,17.71
2017-07-02T10:39:32.781Z,17.64
2017-07-02T10:40:33.363Z,17.79
2017-07-02T10:41:33.961Z,17.74
2017-07-02T10:42:34.543Z,17.51
2017-07-02T10:43:35.126Z,17.59
2017-07-02T10:44:35.708Z,17.57
2017-07-02T10:45:36.290Z,17.52
2017-07-02T10:46:36.874Z,17.65
2017-07-02T10:47:37.454Z,17.38
2017-07-02T10:48:38.036Z,17.48
2017-07-02T10:49:38.633Z,17.54
2017-07-02T10:50:39.217Z,17.42
2017-07-02T10:51:39.798Z,17.34
2017-07-02T10:52:40.380Z,17.31
2017-07-02T10:53:40.964Z,17.39
2017-07-02T10:54:41.544Z,17.31
2017-07-02T10:55:42.125Z,17.30
2017-07-02T10:56:42.723Z,17.27
2017-07-02T10:57:43.306Z,17.31
2017-07-02T10:58:43.888Z,17.27
2017-07-02T10:59:44.469Z,17.39
2017-07-02T11:00:45.066Z,17.27
2017-07-02T11:01:45.649Z,17.14
2017-07-02T11:02:46.231Z,17.23
2017-07-02T11:03:46.813Z,17.22
2017-07-02T11:04:47.395Z,17.22
2017-07-02T11:05:47.978Z,17.12
2017-07-02T11:06:48.559Z,17.14
2017-07-02T11:07:49.142Z,17.16
2017-07-02T11:08:49.724Z,17.08
2017-07-02T11:09:50.306Z,17.09
2017-07-02T11:10:50.889Z,17.14
2017-07-02T11:11:51.470Z,17.24
2017-07-02T11:12:52.051Z,17.23
2017-07-02T11:13:52.635Z,17.33
2017-07-02T11:14:53.216Z,17.26
2017-07-02T11:15:53.815Z,17.34
2017-07-02T11:16:54.395Z,17.34
2017-07-02T11:17:54.978Z,17.39
2017-07-02T11:18:55.562Z,17.34
2017-07-02T11:19:56.143Z,17.41
2017-07-02T11:20:56.726Z,17.46
2017-07-02T11:21:57.307Z,17.39
2017-07-02T11:22:57.887Z,17.23
2017-07-02T11:23:58.470Z,17.39
2017-07-02T11:24:59.052Z,17.33
2017-07-02T11:25:59.633Z,17.56
2017-07-02T11:27:00.216Z,17.39
2017-07-02T11:28:00.798Z,17.44
2017-07-02T11:29:01.377Z,17.36
2017-07-02T11:30:01.960Z,17.56
2017-07-02T11:31:02.540Z,17.33
2017-07-02T11:32:03.124Z,17.68
2017-07-02T11:33:03.705Z,17.78
2017-07-02T11:34:04.286Z,17.79
2017-07-02T11:35:04.869Z,17.72
2017-07-02T11:36:05.452Z,17.56
2017-07-02T11:37:06.034Z,17.67
2017-07-02T11:38:06.614Z,17.76
2017-07-02T11:39:07.198Z,17.82
2017-07-02T11:40:07.780Z,17.80
2017-07-02T11:41:08.363Z,17.89
2017-07-02T11:42:08.948Z,18.15
2017-07-02T11:43:09.530Z,18.07
2017-07-02T11:44:10.112Z,18.13
2017-07-02T11:45:10.697Z,18.00
2017-07-02T11:46:11.280Z,18.29
2017-07-02T11:47:11.861Z,18.38
2017-07-02T11:48:12.445Z,18.23
2017-07-02T11:49:13.028Z,18.37
2017-07-02T11:50:13.611Z,18.50
2017-07-02T11:51:14.196Z,18.59
2017-07-02T11:52:14.779Z,18.49
2017-07-02T11:53:15.363Z,18.71
2017-07-02T11:54:15.947Z,18.52
2017-07-02T11:55:16.534Z,18.70
2017-07-02T11:56:17.116Z,18.75
2017-07-02T11:57:17.718Z,18.81
2017-07-02T11:58:18.300Z,18.88
2017-07-02T11:59:18.900Z,19.07
2017-07-02T12:00:19.484Z,19.11
2017-07-02T12:01:20.066Z,19.14
2017-07-02T12:02:20.649Z,19.08
2017-07-02T12:03:21.233Z,19.30
2017-07-02T12:04:21.817Z,19.71
2017-07-02T12:05:22.400Z,19.48
2017-07-02T12:06:22.983Z,19.40
2017-07-02T12:07:23.569Z,19.59
2017-07-02T12:08:24.151Z,19.91
2017-07-02T12:09:24.733Z,19.59
2017-07-02T12:10:25.319Z,19.59
2017-07-02T12:11:25.902Z,19.70
2017-07-02T12:12:26.489Z,19.76
2017-07-02T12:13:27.071Z,20.06
2017-07-02T12:14:27.655Z,20.22
2017-07-02T12:15:28.239Z,20.06
2017-07-02T12:16:28.822Z,20.07
2017-07-02T12:17:29.406Z,19.84
2017-07-02T12:18:29.991Z,19.96
2017-07-02T12:19:30.575Z,19.94
2017-07-02T12:20:31.159Z,19.92
2017-07-02T12:21:31.759Z,20.04
2017-07-02T12:22:32.358Z,19.81
2017-07-02T12:23:32.940Z,19.77
2017-07-02T12:24:33.522Z,20.11
2017-07-02T12:25:34.106Z,20.25
2017-07-02T12:26:34.690Z,20.10
2017-07-02T12:27:35.274Z,20.07
2017-07-02T12:28:35.860Z,20.13
2017-07-02T12:29:36.442Z,19.85
2017-07-02T12:30:37.026Z,19.91
2017-07-02T12:31:37.612Z,19.96
2017-07-02T12:32:38.195Z,20.09
2017-07-02T12:33:38.779Z,20.28
2017-07-02T12:34:39.366Z,20.39
2017-07-02T12:35:39.964Z,20.88
2017-07-02T12:36:40.549Z,20.81
2017-07-02T12:37:41.134Z,20.77
2017-07-02T12:38:41.719Z,21.09
2017-07-02T12:39:42.302Z,20.26
2017-07-02T12:40:42.887Z,20.10
2017-07-02T12:41:43.472Z,20.36
2017-07-02T12:42:44.058Z,20.41
2017-07-02T12:43:44.642Z,20.36
2017-07-02T12:44:45.227Z,20.28
2017-07-02T12:45:45.825Z,20.44
2017-07-02T12:46:46.410Z,20.63
2017-07-02T12:47:46.994Z,21.06
2017-07-02T12:48:47.578Z,21.22
2017-07-02T12:49:48.162Z,20.43
2017-07-02T12:50:48.745Z,20.58
2017-07-02T12:51:49.342Z,20.65
2017-07-02T12:52:49.926Z,20.77
2017-07-02T12:53:50.516Z,20.58
2017-07-02T12:54:51.113Z,20.63
2017-07-02T12:55:51.699Z,21.24
2017-07-02T12:56:52.283Z,21.05
2017-07-02T12:57:52.869Z,21.24
2017-07-02T12:58:53.452Z,21.52
2017-07-02T12:59:54.037Z,21.50